createdAt,value
2018-12-06T00:00:30.886Z,3.20
2018-12-06T00:03:20.552Z,3.20
2018-12-06T00:06:10.264Z,3.20
2018-12-06T00:08:59.584Z,3.20
2018-12-06T00:11:49.471Z,3.20
2018-12-06T00:14:38.712Z,3.20
2018-12-06T00:17:28.048Z,3.20
2018-12-06T00:20:17.424Z,3.10
2018-12-06T00:22:48.364Z,3.10
2018-12-06T00:25:37.739Z,3.10
2018-12-06T00:28:08.320Z,3.20
2018-12-06T00:30:57.589Z,3.20
2018-12-06T00:33:46.884Z,3.30
2018-12-06T00:36:36.522Z,3.30
2018-12-06T00:39:26.137Z,3.40
2018-12-06T00:42:15.432Z,3.40
2018-12-06T00:45:25.033Z,3.50
2018-12-06T00:47:55.556Z,3.50
2018-12-06T00:50:45.351Z,3.40
2018-12-06T00:53:35.048Z,3.40
2018-12-06T00:56:24.818Z,3.40
2018-12-06T00:59:14.468Z,3.40
2018-12-06T01:05:01.437Z,3.50
2018-12-06T01:07:50.812Z,3.50
2018-12-06T01:10:40.088Z,3.50
2018-12-06T01:13:29.348Z,3.50
2018-12-06T01:16:19.096Z,3.70
2018-12-06T01:19:08.455Z,3.70
2018-12-06T01:21:58.145Z,3.80
2018-12-06T01:24:47.432Z,3.80
2018-12-06T01:27:36.693Z,3.80
2018-12-06T01:30:26.182Z,3.90
2018-12-06T01:33:15.488Z,3.80
2018-12-06T01:36:05.252Z,3.80
2018-12-06T01:38:55.044Z,3.80
2018-12-06T01:42:03.692Z,3.80
2018-12-06T01:45:13.180Z,3.80
2018-12-06T01:48:02.819Z,3.90
2018-12-06T01:50:33.292Z,3.90
2018-12-06T01:53:22.596Z,4.00
2018-12-06T01:56:12.275Z,4.10
2018-12-06T01:59:01.835Z,4.10
2018-12-06T02:01:51.611Z,4.20
2018-12-06T02:04:40.920Z,4.30
2018-12-06T02:07:30.584Z,4.20
2018-12-06T02:10:19.847Z,4.30
2018-12-06T02:13:09.420Z,4.30
2018-12-06T02:15:59.060Z,4.30
2018-12-06T02:18:48.323Z,4.40
2018-12-06T02:21:37.993Z,4.40
2018-12-06T02:24:27.260Z,4.40
2018-12-06T02:27:16.504Z,4.40
2018-12-06T02:30:06.203Z,4.30
2018-12-06T02:32:37.055Z,4.20
2018-12-06T02:35:26.430Z,4.10
2018-12-06T02:38:15.688Z,4.10
2018-12-06T02:41:04.968Z,4.10
2018-12-06T02:46:43.029Z,4.00
2018-12-06T02:49:32.308Z,4.00
2018-12-06T02:52:21.845Z,4.00
2018-12-06T02:55:11.052Z,4.00
2018-12-06T02:58:00.848Z,4.00
2018-12-06T03:00:50.155Z,4.10
2018-12-06T03:03:39.369Z,4.10
2018-12-06T03:06:29.014Z,4.10
2018-12-06T03:09:18.409Z,4.10
2018-12-06T03:12:07.997Z,4.20
2018-12-06T03:14:57.387Z,4.20
2018-12-06T03:17:46.723Z,4.20
2018-12-06T03:20:36.011Z,4.30
2018-12-06T03:26:53.941Z,4.30
2018-12-06T03:29:43.631Z,4.20
2018-12-06T03:32:33.344Z,4.30
2018-12-06T03:35:22.605Z,4.30
2018-12-06T03:38:12.594Z,4.40
2018-12-06T03:41:01.901Z,4.50
2018-12-06T03:43:51.278Z,4.50
2018-12-06T03:46:40.646Z,4.60
2018-12-06T03:49:30.672Z,4.60
2018-12-06T03:52:19.977Z,4.60
2018-12-06T03:55:09.396Z,4.70
2018-12-06T03:57:58.958Z,4.70
2018-12-06T04:00:48.315Z,4.80
2018-12-06T04:03:38.216Z,4.80
2018-12-06T04:06:28.062Z,4.80
2018-12-06T04:09:17.316Z,4.90
2018-12-06T04:12:07.065Z,4.90
2018-12-06T04:14:56.324Z,5.00
2018-12-06T04:17:46.143Z,5.00
2018-12-06T04:20:35.508Z,5.00
2018-12-06T04:26:33.367Z,5.00
2018-12-06T04:29:22.590Z,5.10
2018-12-06T04:32:11.862Z,5.10
2018-12-06T04:35:01.489Z,5.20
2018-12-06T04:37:50.822Z,5.20
2018-12-06T04:40:40.504Z,5.30
2018-12-06T04:43:30.065Z,5.30
2018-12-06T04:46:19.829Z,5.40
2018-12-06T04:49:09.153Z,5.40
2018-12-06T04:51:58.808Z,5.40
2018-12-06T04:54:48.620Z,5.40
2018-12-06T04:57:37.871Z,5.40
2018-12-06T05:00:27.154Z,5.40
2018-12-06T05:03:16.813Z,5.40
2018-12-06T05:06:06.200Z,5.50
2018-12-06T05:08:55.538Z,5.50
2018-12-06T05:11:45.137Z,5.50
2018-12-06T05:14:16.310Z,5.50
2018-12-06T05:17:06.025Z,5.50
2018-12-06T05:19:55.293Z,5.50
2018-12-06T05:22:45.078Z,5.50
2018-12-06T05:25:34.756Z,5.50
2018-12-06T05:28:24.494Z,5.60
2018-12-06T05:31:14.115Z,5.60
2018-12-06T05:34:03.795Z,5.60
2018-12-06T05:36:53.427Z,5.60
2018-12-06T05:39:42.724Z,5.60
2018-12-06T05:42:31.972Z,5.70
2018-12-06T05:45:22.011Z,5.70
2018-12-06T05:48:11.329Z,5.70
2018-12-06T05:51:00.661Z,5.70
2018-12-06T05:53:50.337Z,5.70
2018-12-06T05:56:40.056Z,5.70
2018-12-06T05:59:29.774Z,5.70
2018-12-06T06:02:19.428Z,5.70
2018-12-06T06:05:08.826Z,5.60
2018-12-06T06:07:58.446Z,5.60
2018-12-06T06:10:47.724Z,5.60
2018-12-06T06:13:37.009Z,5.70
2018-12-06T06:16:26.558Z,5.70
2018-12-06T06:19:15.802Z,5.80
2018-12-06T06:22:05.124Z,5.80
2018-12-06T06:24:54.368Z,5.70
2018-12-06T06:27:26.300Z,5.70
2018-12-06T06:30:16.376Z,5.70
2018-12-06T06:33:08.818Z,5.60
2018-12-06T06:38:33.996Z,5.60
2018-12-06T06:41:23.265Z,5.60
2018-12-06T06:44:12.544Z,5.60
2018-12-06T06:47:02.286Z,5.60
2018-12-06T06:49:52.034Z,5.70
2018-12-06T06:52:41.775Z,5.70
2018-12-06T06:55:31.518Z,5.70
2018-12-06T06:58:20.938Z,5.70
2018-12-06T07:01:11.216Z,5.70
2018-12-06T07:04:00.843Z,5.70
2018-12-06T07:06:50.658Z,5.90
2018-12-06T07:09:40.984Z,5.90
2018-12-06T07:12:31.063Z,6.00
2018-12-06T07:15:21.017Z,6.00
2018-12-06T07:18:10.402Z,6.10
2018-12-06T07:21:00.112Z,6.10
2018-12-06T07:23:49.536Z,6.10
2018-12-06T07:26:39.812Z,6.10
2018-12-06T07:29:29.308Z,6.10
2018-12-06T07:32:18.801Z,6.10
2018-12-06T07:35:08.738Z,6.10
2018-12-06T07:37:58.720Z,6.10
2018-12-06T07:40:29.672Z,6.10
2018-12-06T07:43:20.573Z,6.10
2018-12-06T07:46:11.849Z,6.20
2018-12-06T07:49:01.257Z,6.20
2018-12-06T07:51:51.394Z,6.30
2018-12-06T07:54:41.525Z,6.30
2018-12-06T07:57:12.548Z,6.30
2018-12-06T08:00:02.443Z,6.30
2018-12-06T08:02:53.710Z,6.40
2018-12-06T08:05:44.445Z,6.40
2018-12-06T08:08:34.342Z,6.40
2018-12-06T08:11:24.639Z,6.40
2018-12-06T08:13:56.133Z,6.50
2018-12-06T08:17:12.887Z,6.60
2018-12-06T08:19:39.950Z,6.60
2018-12-06T08:22:29.841Z,6.70
2018-12-06T08:25:19.972Z,6.80
2018-12-06T08:28:10.169Z,7.00
2018-12-06T08:31:00.773Z,7.10
2018-12-06T08:33:50.855Z,7.20
2018-12-06T08:36:40.811Z,7.30
2018-12-06T08:39:30.702Z,7.40
2018-12-06T08:42:20.072Z,7.50
2018-12-06T08:45:09.669Z,7.60
2018-12-06T08:47:59.617Z,7.60
2018-12-06T08:50:49.178Z,7.70
2018-12-06T08:53:39.727Z,7.70
2018-12-06T08:56:29.624Z,7.70
2018-12-06T08:59:19.545Z,7.80
2018-12-06T09:02:09.588Z,7.80
2018-12-06T09:04:59.722Z,7.90
2018-12-06T09:07:49.650Z,8.00
2018-12-06T09:10:40.664Z,8.00
2018-12-06T09:13:30.917Z,8.00
2018-12-06T09:16:20.493Z,8.10
2018-12-06T09:19:10.033Z,8.10
2018-12-06T09:22:00.003Z,8.10
2018-12-06T09:24:49.640Z,8.10
2018-12-06T09:27:39.238Z,8.10
2018-12-06T09:30:28.729Z,8.10
2018-12-06T09:33:18.264Z,8.20
2018-12-06T09:36:07.964Z,8.20
2018-12-06T09:38:58.292Z,8.30
2018-12-06T09:41:47.674Z,8.30
2018-12-06T09:44:37.225Z,8.30
2018-12-06T09:50:27.489Z,8.30
2018-12-06T09:53:17.253Z,8.40
2018-12-06T09:56:06.881Z,8.40
2018-12-06T09:58:56.860Z,8.50
2018-12-06T10:01:46.616Z,8.40
2018-12-06T10:07:46.821Z,8.50
2018-12-06T10:10:36.628Z,8.50
2018-12-06T10:13:27.630Z,8.60
2018-12-06T10:16:17.491Z,8.60
2018-12-06T10:19:07.406Z,8.70
2018-12-06T10:21:59.469Z,8.70
2018-12-06T10:24:49.376Z,8.80
2018-12-06T10:27:39.167Z,8.80
2018-12-06T10:30:28.783Z,8.80
2018-12-06T10:33:10.648Z,8.80
2018-12-06T10:35:52.346Z,8.80
2018-12-06T10:38:35.145Z,8.80
2018-12-06T10:41:16.552Z,8.80
2018-12-06T10:43:58.617Z,8.80
2018-12-06T10:46:41.099Z,8.90
2018-12-06T10:49:22.987Z,8.90
2018-12-06T10:52:04.596Z,8.90
2018-12-06T10:54:46.180Z,8.90
2018-12-06T10:57:28.559Z,9.00
2018-12-06T11:00:28.829Z,9.00
2018-12-06T11:06:20.265Z,9.10
2018-12-06T11:09:03.578Z,9.20
2018-12-06T11:11:45.479Z,9.20
2018-12-06T11:14:27.571Z,9.20
2018-12-06T11:17:10.749Z,9.20
2018-12-06T11:19:53.931Z,9.20
2018-12-06T11:22:36.586Z,9.20
2018-12-06T11:25:20.671Z,9.20
2018-12-06T11:28:04.061Z,9.20
2018-12-06T11:30:46.538Z,9.20
2018-12-06T11:33:40.139Z,9.20
2018-12-06T11:39:10.818Z,9.20
2018-12-06T11:42:09.282Z,9.20
2018-12-06T11:47:53.894Z,9.30
2018-12-06T11:51:27.733Z,9.30
2018-12-06T11:53:35.860Z,9.40
2018-12-06T11:56:25.882Z,9.40
2018-12-06T11:59:15.901Z,9.40
2018-12-06T12:02:09.912Z,9.50
2018-12-06T12:08:09.331Z,9.60
2018-12-06T12:11:24.903Z,9.70
2018-12-06T12:13:53.243Z,9.70
2018-12-06T12:16:43.341Z,9.70
2018-12-06T12:19:14.552Z,9.80
2018-12-06T12:21:45.910Z,9.80
2018-12-06T12:24:35.462Z,9.80
2018-12-06T12:30:20.975Z,10.00
2018-12-06T12:33:10.676Z,10.10
2018-12-06T12:36:00.266Z,10.20
2018-12-06T12:38:49.808Z,10.40
2018-12-06T12:41:39.659Z,10.40
2018-12-06T12:44:55.446Z,10.50
2018-12-06T12:47:23.256Z,10.70
2018-12-06T12:50:13.192Z,10.80
2018-12-06T12:56:00.445Z,11.00
2018-12-06T12:58:50.404Z,11.10
2018-12-06T13:02:00.378Z,11.20
2018-12-06T13:04:49.989Z,11.20
2018-12-06T13:07:39.546Z,11.20
2018-12-06T13:10:29.631Z,11.10
2018-12-06T13:13:19.240Z,11.10
2018-12-06T13:16:09.116Z,11.50
2018-12-06T13:18:58.735Z,11.70
2018-12-06T13:21:50.875Z,11.40
2018-12-06T13:24:41.225Z,11.20
2018-12-06T13:27:31.269Z,11.10
2018-12-06T13:30:20.908Z,10.90
2018-12-06T13:33:10.593Z,10.80
2018-12-06T13:36:00.043Z,10.70
2018-12-06T13:38:49.676Z,10.60
2018-12-06T13:41:41.508Z,10.60
2018-12-06T13:44:31.586Z,10.70
2018-12-06T13:47:21.785Z,10.70
2018-12-06T13:50:11.265Z,10.60
2018-12-06T13:53:00.862Z,10.70
2018-12-06T13:55:51.249Z,10.70
2018-12-06T13:58:41.697Z,10.70
2018-12-06T14:04:39.028Z,10.70
2018-12-06T14:07:29.207Z,10.60
2018-12-06T14:10:19.541Z,10.60
2018-12-06T14:13:09.892Z,10.60
2018-12-06T14:15:41.740Z,10.50
2018-12-06T14:18:31.792Z,10.50
2018-12-06T14:26:59.163Z,10.70
2018-12-06T14:29:49.118Z,10.60
2018-12-06T14:32:39.163Z,10.50
2018-12-06T14:35:28.911Z,10.40
2018-12-06T14:38:19.417Z,10.30
2018-12-06T14:41:08.977Z,10.30
2018-12-06T14:43:59.136Z,10.30
2018-12-06T14:46:49.151Z,10.20
2018-12-06T14:52:49.698Z,10.20
2018-12-06T14:55:39.649Z,10.10
2018-12-06T14:58:30.069Z,10.20
2018-12-06T15:01:20.621Z,10.10
2018-12-06T15:04:10.569Z,10.10
2018-12-06T15:07:19.732Z,10.10
2018-12-06T15:09:55.800Z,10.00
2018-12-06T15:12:45.360Z,9.90
2018-12-06T15:15:34.898Z,9.90
2018-12-06T15:18:24.651Z,9.90
2018-12-06T15:21:13.960Z,9.90
2018-12-06T15:24:03.715Z,9.90
2018-12-06T15:26:53.900Z,9.90
2018-12-06T15:29:44.198Z,10.00
2018-12-06T15:32:34.181Z,9.90
2018-12-06T15:35:31.555Z,9.90
2018-12-06T15:38:21.449Z,9.90
2018-12-06T15:44:22.061Z,10.00
2018-12-06T15:47:12.242Z,10.00
2018-12-06T15:52:59.388Z,10.00
2018-12-06T15:55:49.559Z,9.90
2018-12-06T15:58:39.282Z,9.90
2018-12-06T16:01:29.096Z,9.80
2018-12-06T16:04:18.841Z,9.80
2018-12-06T16:07:09.471Z,9.80
2018-12-06T16:09:59.504Z,9.80
2018-12-06T16:12:49.453Z,9.80
2018-12-06T16:16:00.890Z,9.70
2018-12-06T16:18:31.600Z,9.70
2018-12-06T16:21:21.372Z,9.70
2018-12-06T16:24:11.173Z,9.70
2018-12-06T16:27:00.819Z,9.70
2018-12-06T16:29:51.611Z,9.70
2018-12-06T16:32:42.953Z,9.80
2018-12-06T16:35:32.609Z,9.70
2018-12-06T16:38:22.245Z,9.70
2018-12-06T16:41:11.700Z,9.60
2018-12-06T16:44:01.242Z,9.50
2018-12-06T16:46:51.538Z,9.40
2018-12-06T16:49:42.466Z,9.40
2018-12-06T16:55:46.685Z,9.40
2018-12-06T16:58:35.893Z,9.40
2018-12-06T17:01:25.832Z,9.30
2018-12-06T17:04:15.487Z,9.30
2018-12-06T17:07:05.515Z,9.50
2018-12-06T17:09:55.134Z,9.60
2018-12-06T17:12:26.304Z,9.60
2018-12-06T17:15:16.084Z,9.60
2018-12-06T17:18:05.995Z,9.60
2018-12-06T17:20:56.144Z,9.60
2018-12-06T17:23:45.950Z,9.60
2018-12-06T17:26:35.707Z,9.70
2018-12-06T17:29:25.061Z,9.60
2018-12-06T17:32:15.002Z,9.60
2018-12-06T17:35:04.973Z,9.60
2018-12-06T17:40:49.777Z,9.60
2018-12-06T17:43:39.508Z,9.50
2018-12-06T17:46:29.149Z,9.50
2018-12-06T17:49:18.396Z,9.60
2018-12-06T17:52:08.349Z,9.70
2018-12-06T17:54:58.369Z,9.60
2018-12-06T17:57:48.841Z,9.70
2018-12-06T18:00:38.302Z,9.70
2018-12-06T18:03:30.991Z,9.70
2018-12-06T18:06:20.956Z,9.70
2018-12-06T18:09:10.892Z,9.80
2018-12-06T18:11:41.990Z,9.80
2018-12-06T18:14:31.834Z,9.80
2018-12-06T18:17:22.329Z,9.70
2018-12-06T18:20:12.435Z,9.80
2018-12-06T18:23:02.852Z,9.70
2018-12-06T18:25:52.894Z,9.70
2018-12-06T18:28:42.240Z,9.80
2018-12-06T18:31:31.945Z,9.70
2018-12-06T18:34:24.963Z,9.70
2018-12-06T18:37:15.264Z,9.70
2018-12-06T18:40:05.616Z,9.70
2018-12-06T18:42:55.492Z,9.70
2018-12-06T18:45:45.969Z,9.70
2018-12-06T18:48:35.500Z,9.70
2018-12-06T18:51:25.312Z,9.70
2018-12-06T18:54:15.029Z,9.70
2018-12-06T18:57:04.720Z,9.70
2018-12-06T18:59:54.426Z,9.80
2018-12-06T19:03:04.520Z,9.70
2018-12-06T19:11:40.197Z,9.70
2018-12-06T19:14:29.734Z,9.70
2018-12-06T19:17:19.700Z,9.70
2018-12-06T19:20:09.287Z,9.70
2018-12-06T19:22:58.896Z,9.70
2018-12-06T19:25:49.178Z,9.80
2018-12-06T19:28:38.890Z,9.70
2018-12-06T19:31:28.896Z,9.70
2018-12-06T19:34:18.680Z,9.70
2018-12-06T19:37:08.874Z,9.60
2018-12-06T19:40:00.869Z,9.60
2018-12-06T19:42:51.092Z,9.60
2018-12-06T19:45:41.038Z,9.60
2018-12-06T19:48:30.500Z,9.70
2018-12-06T19:51:20.405Z,9.60
2018-12-06T19:54:10.428Z,9.60
2018-12-06T20:00:28.689Z,9.50
2018-12-06T20:03:18.763Z,9.50
2018-12-06T20:06:08.244Z,9.40
2018-12-06T20:08:57.788Z,9.40
2018-12-06T20:11:47.792Z,9.50
2018-12-06T20:14:37.268Z,9.50
2018-12-06T20:17:26.985Z,9.50
2018-12-06T20:20:23.376Z,9.50
2018-12-06T20:23:08.545Z,9.50
2018-12-06T20:25:58.533Z,9.60
2018-12-06T20:28:47.920Z,9.60
2018-12-06T20:31:37.925Z,9.70
2018-12-06T20:34:27.529Z,9.70
2018-12-06T20:37:17.538Z,9.70
2018-12-06T20:40:07.651Z,9.70
2018-12-06T20:42:57.241Z,9.80
2018-12-06T20:45:47.188Z,9.80
2018-12-06T20:48:37.182Z,9.70
2018-12-06T20:51:27.207Z,9.70
2018-12-06T20:54:16.752Z,9.70
2018-12-06T20:57:06.645Z,9.60
2018-12-06T20:59:56.276Z,9.70
2018-12-06T21:02:45.809Z,9.60
2018-12-06T21:05:35.954Z,9.70
2018-12-06T21:08:25.650Z,9.70
2018-12-06T21:11:15.329Z,9.70
2018-12-06T21:14:05.645Z,9.70
2018-12-06T21:16:55.031Z,9.70
2018-12-06T21:19:44.670Z,9.80
2018-12-06T21:22:15.417Z,9.70
2018-12-06T21:25:04.773Z,9.70
2018-12-06T21:27:54.389Z,9.70
2018-12-06T21:30:44.288Z,9.70
2018-12-06T21:33:33.977Z,9.70
2018-12-06T21:36:23.304Z,9.70
2018-12-06T21:39:15.471Z,9.70
2018-12-06T21:42:05.533Z,9.70
2018-12-06T21:44:55.256Z,9.60
2018-12-06T21:47:45.300Z,9.60
2018-12-06T21:50:35.390Z,9.70
2018-12-06T21:53:45.153Z,9.70
2018-12-06T21:56:50.371Z,9.70
2018-12-06T21:59:26.365Z,9.70
2018-12-06T22:02:34.880Z,9.70
2018-12-06T22:11:32.026Z,9.70
2018-12-06T22:14:21.311Z,9.80
2018-12-06T22:17:10.570Z,9.80
2018-12-06T22:20:00.300Z,9.90
2018-12-06T22:22:42.087Z,9.90
2018-12-06T22:25:24.519Z,9.90
2018-12-06T22:27:55.401Z,9.90
2018-12-06T22:30:44.715Z,9.90
2018-12-06T22:33:33.977Z,9.90
2018-12-06T22:36:23.639Z,9.90
2018-12-06T22:39:12.880Z,9.80
2018-12-06T22:42:02.152Z,9.90
2018-12-06T22:48:06.649Z,10.00
2018-12-06T22:50:55.903Z,10.00
2018-12-06T22:53:45.212Z,9.90
2018-12-06T22:56:34.889Z,9.90
2018-12-06T22:59:24.685Z,9.90
2018-12-06T23:02:14.331Z,9.90
2018-12-06T23:05:03.620Z,9.90
2018-12-06T23:07:53.321Z,9.90
2018-12-06T23:10:42.615Z,10.00
2018-12-06T23:13:31.855Z,10.00
2018-12-06T23:16:21.631Z,10.00
2018-12-06T23:19:17.943Z,9.90
2018-12-06T23:22:07.212Z,9.90
2018-12-06T23:24:56.868Z,9.90
2018-12-06T23:27:46.565Z,9.90
2018-12-06T23:30:35.844Z,9.80
2018-12-06T23:33:31.806Z,9.80
2018-12-06T23:38:45.104Z,9.80
2018-12-06T23:41:34.411Z,9.90
2018-12-06T23:44:23.665Z,10.00
2018-12-06T23:47:13.382Z,10.00
2018-12-06T23:50:02.702Z,10.00
2018-12-06T23:52:51.912Z,10.00
2018-12-06T23:55:41.198Z,10.00
2018-12-06T23:58:30.453Z,10.00
